Logan, Minnesota
Current Conditions -  °F | °C
As of 10:13 PM on Monday 22 Dec 2014 (Local Time) from KAIT Reporting Station
Haze Haze  
Wind Chill:   Ceiling: 700
Heat Index:   Visibility: 3mi
Dew Point: -1°   Wind: 5mph
Humidity: 81%   Direction: 70°ENE
Pressure: 29.68"   Gusts: NA
Location:  46.7281°N, 93.6101°W
Report Text: KAIT 230413Z AUTO 07004KT 3SM HZ OVC007 02/M01 A2968 RMK AO2
Loading
Personal Weather Stations






























Interactive Weather Map New forecast layout! Learn more

10-Day Weather Forecast

Advertisements
Track Severe Weather on mobile